sensor_id;sensor_type;location;lat;lon;timestamp;P1;durP1;ratioP1;P2;durP2;ratioP2
65567;SDS011;52211;50.154;8.682;2023-06-22T00:00:39;3.40;;;3.10;;
65567;SDS011;52211;50.154;8.682;2023-06-22T00:03:08;3.50;;;3.23;;
65567;SDS011;52211;50.154;8.682;2023-06-22T00:05:37;3.90;;;3.57;;
65567;SDS011;52211;50.154;8.682;2023-06-22T00:08:05;3.90;;;3.60;;
65567;SDS011;52211;50.154;8.682;2023-06-22T00:10:32;3.40;;;3.17;;
65567;SDS011;52211;50.154;8.682;2023-06-22T00:13:04;3.50;;;3.20;;
65567;SDS011;52211;50.154;8.682;2023-06-22T00:15:32;4.00;;;3.70;;
65567;SDS011;52211;50.154;8.682;2023-06-22T00:18:00;4.47;;;4.07;;
65567;SDS011;52211;50.154;8.682;2023-06-22T00:20:29;4.10;;;3.80;;
65567;SDS011;52211;50.154;8.682;2023-06-22T00:23:02;3.50;;;3.20;;
65567;SDS011;52211;50.154;8.682;2023-06-22T00:25:38;3.37;;;3.17;;
65567;SDS011;52211;50.154;8.682;2023-06-22T00:28:07;4.00;;;3.60;;
65567;SDS011;52211;50.154;8.682;2023-06-22T00:30:38;3.73;;;3.43;;
65567;SDS011;52211;50.154;8.682;2023-06-22T00:33:07;3.80;;;3.50;;
65567;SDS011;52211;50.154;8.682;2023-06-22T00:35:34;4.30;;;3.90;;
65567;SDS011;52211;50.154;8.682;2023-06-22T00:38:01;4.40;;;4.00;;
65567;SDS011;52211;50.154;8.682;2023-06-22T00:40:30;4.80;;;3.83;;
65567;SDS011;52211;50.154;8.682;2023-06-22T00:43:03;4.03;;;3.63;;
65567;SDS011;52211;50.154;8.682;2023-06-22T00:45:39;3.60;;;3.30;;
65567;SDS011;52211;50.154;8.682;2023-06-22T00:48:09;4.13;;;3.83;;
65567;SDS011;52211;50.154;8.682;2023-06-22T00:50:36;3.93;;;3.63;;
65567;SDS011;52211;50.154;8.682;2023-06-22T00:53:08;3.63;;;3.33;;
65567;SDS011;52211;50.154;8.682;2023-06-22T00:55:41;4.20;;;3.80;;
65567;SDS011;52211;50.154;8.682;2023-06-22T00:58:13;4.10;;;3.80;;
65567;SDS011;52211;50.154;8.682;2023-06-22T01:00:40;3.73;;;3.43;;
65567;SDS011;52211;50.154;8.682;2023-06-22T01:03:10;3.57;;;3.27;;
65567;SDS011;52211;50.154;8.682;2023-06-22T01:05:38;4.17;;;3.87;;
65567;SDS011;52211;50.154;8.682;2023-06-22T01:11:28;3.27;;;2.97;;
65567;SDS011;52211;50.154;8.682;2023-06-22T01:14:12;3.43;;;3.13;;
65567;SDS011;52211;50.154;8.682;2023-06-22T01:16:55;3.50;;;3.30;;
65567;SDS011;52211;50.154;8.682;2023-06-22T01:22:18;4.00;;;3.70;;
65567;SDS011;52211;50.154;8.682;2023-06-22T01:30:29;3.70;;;3.40;;
65567;SDS011;52211;50.154;8.682;2023-06-22T01:33:03;4.20;;;3.90;;
65567;SDS011;52211;50.154;8.682;2023-06-22T01:35:31;4.00;;;3.60;;
65567;SDS011;52211;50.154;8.682;2023-06-22T01:38:04;4.30;;;3.90;;
65567;SDS011;52211;50.154;8.682;2023-06-22T01:40:33;4.13;;;3.73;;
65567;SDS011;52211;50.154;8.682;2023-06-22T01:43:06;4.83;;;4.43;;
65567;SDS011;52211;50.154;8.682;2023-06-22T01:45:38;4.33;;;4.03;;
65567;SDS011;52211;50.154;8.682;2023-06-22T01:48:07;4.43;;;4.03;;
65567;SDS011;52211;50.154;8.682;2023-06-22T01:50:35;4.43;;;4.03;;
65567;SDS011;52211;50.154;8.682;2023-06-22T01:53:07;4.33;;;3.97;;
65567;SDS011;52211;50.154;8.682;2023-06-22T01:55:36;4.73;;;4.23;;
65567;SDS011;52211;50.154;8.682;2023-06-22T01:58:02;4.40;;;4.00;;
65567;SDS011;52211;50.154;8.682;2023-06-22T02:00:33;6.53;;;4.53;;
65567;SDS011;52211;50.154;8.682;2023-06-22T02:03:14;4.57;;;4.17;;
65567;SDS011;52211;50.154;8.682;2023-06-22T02:05:55;4.53;;;4.13;;
65567;SDS011;52211;50.154;8.682;2023-06-22T02:08:35;5.70;;;5.10;;
65567;SDS011;52211;50.154;8.682;2023-06-22T02:11:21;4.80;;;4.47;;
65567;SDS011;52211;50.154;8.682;2023-06-22T02:13:52;4.13;;;3.83;;
65567;SDS011;52211;50.154;8.682;2023-06-22T02:16:23;4.67;;;4.23;;
65567;SDS011;52211;50.154;8.682;2023-06-22T02:18:52;5.17;;;4.67;;
65567;SDS011;52211;50.154;8.682;2023-06-22T02:21:19;4.83;;;4.43;;
65567;SDS011;52211;50.154;8.682;2023-06-22T02:23:49;5.27;;;4.87;;
65567;SDS011;52211;50.154;8.682;2023-06-22T02:26:17;4.47;;;3.43;;
65567;SDS011;52211;50.154;8.682;2023-06-22T02:28:47;4.47;;;4.07;;
65567;SDS011;52211;50.154;8.682;2023-06-22T02:31:16;4.23;;;3.87;;
65567;SDS011;52211;50.154;8.682;2023-06-22T02:33:47;4.47;;;4.07;;
65567;SDS011;52211;50.154;8.682;2023-06-22T02:36:20;4.40;;;4.00;;
65567;SDS011;52211;50.154;8.682;2023-06-22T02:38:48;5.30;;;4.87;;
65567;SDS011;52211;50.154;8.682;2023-06-22T02:41:17;4.17;;;3.87;;
65567;SDS011;52211;50.154;8.682;2023-06-22T02:43:49;4.63;;;4.23;;
65567;SDS011;52211;50.154;8.682;2023-06-22T02:46:18;5.20;;;4.07;;
65567;SDS011;52211;50.154;8.682;2023-06-22T02:48:46;4.43;;;4.10;;
65567;SDS011;52211;50.154;8.682;2023-06-22T02:51:15;5.30;;;4.80;;
65567;SDS011;52211;50.154;8.682;2023-06-22T02:53:42;4.93;;;4.43;;
65567;SDS011;52211;50.154;8.682;2023-06-22T02:56:13;4.80;;;4.40;;
65567;SDS011;52211;50.154;8.682;2023-06-22T02:58:43;4.67;;;4.27;;
65567;SDS011;52211;50.154;8.682;2023-06-22T03:01:17;4.77;;;4.40;;
65567;SDS011;52211;50.154;8.682;2023-06-22T03:03:50;5.50;;;4.63;;
65567;SDS011;52211;50.154;8.682;2023-06-22T03:06:17;4.37;;;3.97;;
65567;SDS011;52211;50.154;8.682;2023-06-22T03:08:56;5.13;;;4.63;;
65567;SDS011;52211;50.154;8.682;2023-06-22T03:11:31;4.87;;;4.47;;
65567;SDS011;52211;50.154;8.682;2023-06-22T03:13:59;4.37;;;4.03;;
65567;SDS011;52211;50.154;8.682;2023-06-22T03:16:30;5.80;;;5.30;;
65567;SDS011;52211;50.154;8.682;2023-06-22T03:19:00;5.47;;;5.07;;
65567;SDS011;52211;50.154;8.682;2023-06-22T03:21:34;5.73;;;4.23;;
65567;SDS011;52211;50.154;8.682;2023-06-22T03:24:01;5.57;;;4.97;;
65567;SDS011;52211;50.154;8.682;2023-06-22T03:26:30;5.17;;;4.57;;
65567;SDS011;52211;50.154;8.682;2023-06-22T03:28:57;5.43;;;4.93;;
65567;SDS011;52211;50.154;8.682;2023-06-22T03:31:27;5.30;;;4.80;;
65567;SDS011;52211;50.154;8.682;2023-06-22T03:33:58;5.67;;;5.17;;
65567;SDS011;52211;50.154;8.682;2023-06-22T03:36:24;5.13;;;4.67;;
65567;SDS011;52211;50.154;8.682;2023-06-22T03:38:54;6.13;;;5.53;;
65567;SDS011;52211;50.154;8.682;2023-06-22T03:41:28;5.40;;;4.90;;
65567;SDS011;52211;50.154;8.682;2023-06-22T03:43:57;5.43;;;4.93;;
65567;SDS011;52211;50.154;8.682;2023-06-22T03:46:24;5.43;;;4.93;;
65567;SDS011;52211;50.154;8.682;2023-06-22T03:48:53;5.87;;;5.37;;
65567;SDS011;52211;50.154;8.682;2023-06-22T03:51:20;6.37;;;5.27;;
65567;SDS011;52211;50.154;8.682;2023-06-22T03:53:51;8.93;;;5.30;;
65567;SDS011;52211;50.154;8.682;2023-06-22T03:56:18;5.33;;;4.83;;
65567;SDS011;52211;50.154;8.682;2023-06-22T03:58:49;5.50;;;5.00;;
65567;SDS011;52211;50.154;8.682;2023-06-22T04:01:19;5.87;;;5.03;;
65567;SDS011;52211;50.154;8.682;2023-06-22T04:03:46;5.60;;;5.10;;
65567;SDS011;52211;50.154;8.682;2023-06-22T04:06:15;6.40;;;5.43;;
65567;SDS011;52211;50.154;8.682;2023-06-22T04:08:49;5.50;;;5.10;;
65567;SDS011;52211;50.154;8.682;2023-06-22T04:11:17;5.30;;;4.90;;
65567;SDS011;52211;50.154;8.682;2023-06-22T04:13:44;5.33;;;4.83;;
65567;SDS011;52211;50.154;8.682;2023-06-22T04:16:11;5.47;;;4.90;;
65567;SDS011;52211;50.154;8.682;2023-06-22T04:18:41;5.23;;;4.83;;
65567;SDS011;52211;50.154;8.682;2023-06-22T04:21:08;5.40;;;4.83;;
65567;SDS011;52211;50.154;8.682;2023-06-22T04:23:36;4.90;;;4.43;;
65567;SDS011;52211;50.154;8.682;2023-06-22T04:26:10;5.40;;;4.90;;
65567;SDS011;52211;50.154;8.682;2023-06-22T04:28:40;4.67;;;4.37;;
65567;SDS011;52211;50.154;8.682;2023-06-22T04:31:18;6.03;;;5.47;;
65567;SDS011;52211;50.154;8.682;2023-06-22T04:33:48;5.80;;;5.27;;
65567;SDS011;52211;50.154;8.682;2023-06-22T04:36:19;5.70;;;5.20;;
65567;SDS011;52211;50.154;8.682;2023-06-22T04:38:49;5.37;;;4.97;;
65567;SDS011;52211;50.154;8.682;2023-06-22T04:41:18;5.10;;;4.70;;
65567;SDS011;52211;50.154;8.682;2023-06-22T04:43:50;5.77;;;5.27;;
65567;SDS011;52211;50.154;8.682;2023-06-22T04:46:20;4.80;;;4.30;;
65567;SDS011;52211;50.154;8.682;2023-06-22T04:48:46;6.20;;;5.60;;
65567;SDS011;52211;50.154;8.682;2023-06-22T04:51:16;5.93;;;5.43;;
65567;SDS011;52211;50.154;8.682;2023-06-22T04:53:50;5.67;;;5.17;;
65567;SDS011;52211;50.154;8.682;2023-06-22T04:56:27;5.50;;;5.00;;
65567;SDS011;52211;50.154;8.682;2023-06-22T04:58:59;5.63;;;5.13;;
65567;SDS011;52211;50.154;8.682;2023-06-22T05:01:33;5.53;;;5.03;;
65567;SDS011;52211;50.154;8.682;2023-06-22T05:04:03;5.00;;;4.50;;
65567;SDS011;52211;50.154;8.682;2023-06-22T05:06:33;5.63;;;5.13;;
65567;SDS011;52211;50.154;8.682;2023-06-22T05:09:06;5.23;;;4.73;;
65567;SDS011;52211;50.154;8.682;2023-06-22T05:11:35;5.33;;;4.93;;
65567;SDS011;52211;50.154;8.682;2023-06-22T05:14:02;5.37;;;4.87;;
65567;SDS011;52211;50.154;8.682;2023-06-22T05:16:31;5.70;;;5.20;;
65567;SDS011;52211;50.154;8.682;2023-06-22T05:19:01;5.60;;;5.00;;
65567;SDS011;52211;50.154;8.682;2023-06-22T05:21:30;5.47;;;4.83;;
65567;SDS011;52211;50.154;8.682;2023-06-22T05:23:58;5.03;;;4.63;;
65567;SDS011;52211;50.154;8.682;2023-06-22T05:26:29;8.20;;;5.63;;
65567;SDS011;52211;50.154;8.682;2023-06-22T05:28:59;5.40;;;4.83;;
65567;SDS011;52211;50.154;8.682;2023-06-22T05:31:28;5.97;;;5.43;;
65567;SDS011;52211;50.154;8.682;2023-06-22T05:33:56;6.23;;;4.63;;
65567;SDS011;52211;50.154;8.682;2023-06-22T05:36:30;6.87;;;5.43;;
65567;SDS011;52211;50.154;8.682;2023-06-22T05:38:57;5.97;;;5.17;;
65567;SDS011;52211;50.154;8.682;2023-06-22T05:41:24;6.40;;;5.80;;
65567;SDS011;52211;50.154;8.682;2023-06-22T05:43:53;5.80;;;5.20;;
65567;SDS011;52211;50.154;8.682;2023-06-22T05:46:23;8.17;;;7.37;;
65567;SDS011;52211;50.154;8.682;2023-06-22T05:48:54;6.33;;;5.83;;
65567;SDS011;52211;50.154;8.682;2023-06-22T05:51:21;7.97;;;7.17;;
65567;SDS011;52211;50.154;8.682;2023-06-22T05:53:48;6.47;;;5.87;;
65567;SDS011;52211;50.154;8.682;2023-06-22T05:56:17;6.37;;;5.77;;
65567;SDS011;52211;50.154;8.682;2023-06-22T05:58:49;7.03;;;6.43;;
65567;SDS011;52211;50.154;8.682;2023-06-22T06:01:18;7.60;;;6.90;;
65567;SDS011;52211;50.154;8.682;2023-06-22T06:03:45;7.57;;;5.70;;
65567;SDS011;52211;50.154;8.682;2023-06-22T06:06:16;5.77;;;5.27;;
65567;SDS011;52211;50.154;8.682;2023-06-22T06:08:43;7.13;;;6.43;;
65567;SDS011;52211;50.154;8.682;2023-06-22T06:11:12;6.57;;;5.97;;
65567;SDS011;52211;50.154;8.682;2023-06-22T06:13:41;6.47;;;5.73;;
65567;SDS011;52211;50.154;8.682;2023-06-22T06:16:11;7.37;;;6.10;;
65567;SDS011;52211;50.154;8.682;2023-06-22T06:18:41;7.23;;;5.80;;
65567;SDS011;52211;50.154;8.682;2023-06-22T06:21:08;6.50;;;5.83;;
65567;SDS011;52211;50.154;8.682;2023-06-22T06:23:35;6.10;;;5.60;;
65567;SDS011;52211;50.154;8.682;2023-06-22T06:26:04;7.37;;;6.60;;
65567;SDS011;52211;50.154;8.682;2023-06-22T06:28:36;6.90;;;6.13;;
65567;SDS011;52211;50.154;8.682;2023-06-22T06:31:03;7.30;;;6.50;;
65567;SDS011;52211;50.154;8.682;2023-06-22T06:33:34;8.10;;;6.27;;
65567;SDS011;52211;50.154;8.682;2023-06-22T06:36:05;5.97;;;5.37;;
65567;SDS011;52211;50.154;8.682;2023-06-22T06:38:37;6.53;;;5.93;;
65567;SDS011;52211;50.154;8.682;2023-06-22T06:41:04;5.80;;;5.37;;
65567;SDS011;52211;50.154;8.682;2023-06-22T06:43:33;6.70;;;5.80;;
65567;SDS011;52211;50.154;8.682;2023-06-22T06:46:00;5.77;;;5.17;;
65567;SDS011;52211;50.154;8.682;2023-06-22T06:48:31;6.23;;;5.50;;
65567;SDS011;52211;50.154;8.682;2023-06-22T06:51:01;7.20;;;5.77;;
65567;SDS011;52211;50.154;8.682;2023-06-22T06:53:28;6.50;;;5.90;;
65567;SDS011;52211;50.154;8.682;2023-06-22T06:55:58;6.33;;;5.83;;
65567;SDS011;52211;50.154;8.682;2023-06-22T06:58:27;6.57;;;5.97;;
65567;SDS011;52211;50.154;8.682;2023-06-22T07:00:58;7.53;;;5.97;;
65567;SDS011;52211;50.154;8.682;2023-06-22T07:03:28;6.23;;;5.73;;
65567;SDS011;52211;50.154;8.682;2023-06-22T07:06:02;6.40;;;5.83;;
65567;SDS011;52211;50.154;8.682;2023-06-22T07:08:29;10.53;;;5.57;;
65567;SDS011;52211;50.154;8.682;2023-06-22T07:10:56;7.37;;;6.67;;
65567;SDS011;52211;50.154;8.682;2023-06-22T07:13:24;8.50;;;6.33;;
65567;SDS011;52211;50.154;8.682;2023-06-22T07:15:53;6.83;;;6.17;;
65567;SDS011;52211;50.154;8.682;2023-06-22T07:18:20;5.40;;;4.90;;
65567;SDS011;52211;50.154;8.682;2023-06-22T07:20:49;7.00;;;6.33;;
65567;SDS011;52211;50.154;8.682;2023-06-22T07:23:16;6.50;;;5.90;;
65567;SDS011;52211;50.154;8.682;2023-06-22T07:25:46;7.00;;;6.40;;
65567;SDS011;52211;50.154;8.682;2023-06-22T07:28:13;6.43;;;5.87;;
65567;SDS011;52211;50.154;8.682;2023-06-22T07:30:44;5.57;;;5.07;;
65567;SDS011;52211;50.154;8.682;2023-06-22T07:33:13;7.23;;;6.57;;
65567;SDS011;52211;50.154;8.682;2023-06-22T07:35:40;6.07;;;5.47;;
65567;SDS011;52211;50.154;8.682;2023-06-22T07:38:10;6.30;;;5.70;;
65567;SDS011;52211;50.154;8.682;2023-06-22T07:40:37;6.30;;;5.70;;
65567;SDS011;52211;50.154;8.682;2023-06-22T07:43:07;6.07;;;5.57;;
65567;SDS011;52211;50.154;8.682;2023-06-22T07:45:37;6.07;;;5.53;;
65567;SDS011;52211;50.154;8.682;2023-06-22T07:48:08;6.70;;;6.10;;
65567;SDS011;52211;50.154;8.682;2023-06-22T07:50:35;6.67;;;5.47;;
65567;SDS011;52211;50.154;8.682;2023-06-22T07:53:04;6.10;;;5.60;;
65567;SDS011;52211;50.154;8.682;2023-06-22T07:55:36;7.10;;;6.40;;
65567;SDS011;52211;50.154;8.682;2023-06-22T07:58:06;6.40;;;5.90;;
65567;SDS011;52211;50.154;8.682;2023-06-22T08:00:33;6.80;;;5.87;;
65567;SDS011;52211;50.154;8.682;2023-06-22T08:03:02;6.80;;;6.07;;
65567;SDS011;52211;50.154;8.682;2023-06-22T08:05:33;8.50;;;5.80;;
65567;SDS011;52211;50.154;8.682;2023-06-22T08:08:05;5.97;;;5.37;;
65567;SDS011;52211;50.154;8.682;2023-06-22T08:10:34;5.90;;;5.37;;
65567;SDS011;52211;50.154;8.682;2023-06-22T08:13:02;6.20;;;5.70;;
65567;SDS011;52211;50.154;8.682;2023-06-22T08:15:32;7.33;;;6.73;;
65567;SDS011;52211;50.154;8.682;2023-06-22T08:17:59;7.07;;;6.03;;
65567;SDS011;52211;50.154;8.682;2023-06-22T08:20:29;6.50;;;5.90;;
65567;SDS011;52211;50.154;8.682;2023-06-22T08:22:57;6.67;;;6.07;;
65567;SDS011;52211;50.154;8.682;2023-06-22T08:25:29;6.10;;;5.53;;
65567;SDS011;52211;50.154;8.682;2023-06-22T08:27:58;7.67;;;6.97;;
65567;SDS011;52211;50.154;8.682;2023-06-22T08:30:26;6.17;;;5.67;;
65567;SDS011;52211;50.154;8.682;2023-06-22T08:32:56;5.63;;;5.13;;
65567;SDS011;52211;50.154;8.682;2023-06-22T08:35:25;6.93;;;6.23;;
65567;SDS011;52211;50.154;8.682;2023-06-22T08:37:55;6.23;;;5.73;;
65567;SDS011;52211;50.154;8.682;2023-06-22T08:40:27;6.80;;;6.20;;
65567;SDS011;52211;50.154;8.682;2023-06-22T08:42:58;7.10;;;6.40;;
65567;SDS011;52211;50.154;8.682;2023-06-22T08:45:24;7.03;;;6.43;;
65567;SDS011;52211;50.154;8.682;2023-06-22T08:47:56;8.30;;;6.13;;
65567;SDS011;52211;50.154;8.682;2023-06-22T08:50:23;7.83;;;7.03;;
65567;SDS011;52211;50.154;8.682;2023-06-22T08:52:52;6.90;;;6.30;;
65567;SDS011;52211;50.154;8.682;2023-06-22T08:55:24;6.63;;;6.13;;
65567;SDS011;52211;50.154;8.682;2023-06-22T08:57:51;6.63;;;6.03;;
65567;SDS011;52211;50.154;8.682;2023-06-22T09:00:18;7.13;;;5.63;;
65567;SDS011;52211;50.154;8.682;2023-06-22T09:02:48;6.23;;;5.73;;
65567;SDS011;52211;50.154;8.682;2023-06-22T09:05:18;6.83;;;6.33;;
65567;SDS011;52211;50.154;8.682;2023-06-22T09:07:47;6.30;;;5.80;;
65567;SDS011;52211;50.154;8.682;2023-06-22T09:10:21;8.17;;;6.60;;
65567;SDS011;52211;50.154;8.682;2023-06-22T09:12:48;6.53;;;5.93;;
65567;SDS011;52211;50.154;8.682;2023-06-22T09:15:15;5.77;;;5.27;;
65567;SDS011;52211;50.154;8.682;2023-06-22T09:17:52;6.93;;;5.80;;
65567;SDS011;52211;50.154;8.682;2023-06-22T09:20:24;6.70;;;6.10;;
65567;SDS011;52211;50.154;8.682;2023-06-22T09:22:55;6.57;;;5.87;;
65567;SDS011;52211;50.154;8.682;2023-06-22T09:25:27;6.77;;;6.17;;
65567;SDS011;52211;50.154;8.682;2023-06-22T09:27:54;6.30;;;5.80;;
65567;SDS011;52211;50.154;8.682;2023-06-22T09:30:26;6.70;;;6.20;;
65567;SDS011;52211;50.154;8.682;2023-06-22T09:32:55;6.83;;;6.23;;
65567;SDS011;52211;50.154;8.682;2023-06-22T09:35:25;6.10;;;5.60;;
65567;SDS011;52211;50.154;8.682;2023-06-22T09:37:51;8.13;;;6.30;;
65567;SDS011;52211;50.154;8.682;2023-06-22T09:40:21;6.50;;;5.90;;
65567;SDS011;52211;50.154;8.682;2023-06-22T09:42:50;6.33;;;5.67;;
65567;SDS011;52211;50.154;8.682;2023-06-22T09:45:19;6.20;;;5.70;;
65567;SDS011;52211;50.154;8.682;2023-06-22T09:47:46;6.37;;;5.83;;
65567;SDS011;52211;50.154;8.682;2023-06-22T09:50:15;6.30;;;5.80;;
65567;SDS011;52211;50.154;8.682;2023-06-22T09:52:47;6.03;;;5.43;;
65567;SDS011;52211;50.154;8.682;2023-06-22T09:55:21;6.77;;;6.10;;
65567;SDS011;52211;50.154;8.682;2023-06-22T09:57:48;5.90;;;5.40;;
65567;SDS011;52211;50.154;8.682;2023-06-22T10:00:18;6.50;;;5.60;;
65567;SDS011;52211;50.154;8.682;2023-06-22T10:02:45;6.33;;;5.83;;
65567;SDS011;52211;50.154;8.682;2023-06-22T10:05:15;6.23;;;5.67;;
65567;SDS011;52211;50.154;8.682;2023-06-22T10:07:45;5.73;;;5.33;;
65567;SDS011;52211;50.154;8.682;2023-06-22T10:10:16;6.47;;;5.97;;
65567;SDS011;52211;50.154;8.682;2023-06-22T10:12:47;6.47;;;5.87;;
65567;SDS011;52211;50.154;8.682;2023-06-22T10:15:26;6.40;;;5.83;;
65567;SDS011;52211;50.154;8.682;2023-06-22T10:17:56;5.77;;;5.37;;
65567;SDS011;52211;50.154;8.682;2023-06-22T10:20:23;5.63;;;5.13;;
65567;SDS011;52211;50.154;8.682;2023-06-22T10:22:52;6.17;;;5.63;;
65567;SDS011;52211;50.154;8.682;2023-06-22T10:25:21;5.87;;;5.37;;
65567;SDS011;52211;50.154;8.682;2023-06-22T10:27:51;6.67;;;6.07;;
65567;SDS011;52211;50.154;8.682;2023-06-22T10:30:18;6.00;;;4.97;;
65567;SDS011;52211;50.154;8.682;2023-06-22T10:32:44;4.73;;;4.40;;
65567;SDS011;52211;50.154;8.682;2023-06-22T10:35:14;7.53;;;4.40;;
65567;SDS011;52211;50.154;8.682;2023-06-22T10:37:44;5.37;;;4.90;;
65567;SDS011;52211;50.154;8.682;2023-06-22T10:40:12;5.13;;;4.73;;
65567;SDS011;52211;50.154;8.682;2023-06-22T10:42:43;5.13;;;4.63;;
65567;SDS011;52211;50.154;8.682;2023-06-22T10:45:16;5.10;;;4.70;;
65567;SDS011;52211;50.154;8.682;2023-06-22T10:47:45;4.83;;;4.43;;
65567;SDS011;52211;50.154;8.682;2023-06-22T10:50:17;5.83;;;5.43;;
65567;SDS011;52211;50.154;8.682;2023-06-22T10:52:49;5.33;;;4.93;;
65567;SDS011;52211;50.154;8.682;2023-06-22T10:55:22;4.57;;;4.23;;
65567;SDS011;52211;50.154;8.682;2023-06-22T10:57:54;6.23;;;4.67;;
65567;SDS011;52211;50.154;8.682;2023-06-22T11:00:23;5.50;;;5.00;;
65567;SDS011;52211;50.154;8.682;2023-06-22T11:02:52;7.07;;;5.23;;
65567;SDS011;52211;50.154;8.682;2023-06-22T11:05:22;5.10;;;4.57;;
65567;SDS011;52211;50.154;8.682;2023-06-22T11:07:49;5.97;;;5.47;;
65567;SDS011;52211;50.154;8.682;2023-06-22T11:10:22;5.30;;;4.90;;
65567;SDS011;52211;50.154;8.682;2023-06-22T11:12:49;5.00;;;4.60;;
65567;SDS011;52211;50.154;8.682;2023-06-22T11:15:18;5.05;;;4.65;;
65567;SDS011;52211;50.154;8.682;2023-06-22T11:17:51;5.10;;;4.70;;
65567;SDS011;52211;50.154;8.682;2023-06-22T11:20:20;5.72;;;5.07;;
65567;SDS011;52211;50.154;8.682;2023-06-22T11:22:49;4.43;;;4.05;;
65567;SDS011;52211;50.154;8.682;2023-06-22T11:25:24;6.00;;;4.60;;
65567;SDS011;52211;50.154;8.682;2023-06-22T11:27:51;5.15;;;4.75;;
65567;SDS011;52211;50.154;8.682;2023-06-22T11:30:23;4.75;;;4.38;;
65567;SDS011;52211;50.154;8.682;2023-06-22T11:32:59;5.10;;;4.57;;
65567;SDS011;52211;50.154;8.682;2023-06-22T11:35:28;4.93;;;4.50;;
65567;SDS011;52211;50.154;8.682;2023-06-22T11:37:58;5.25;;;4.07;;
65567;SDS011;52211;50.154;8.682;2023-06-22T11:40:27;6.13;;;4.32;;
65567;SDS011;52211;50.154;8.682;2023-06-22T11:42:56;5.43;;;4.93;;
65567;SDS011;52211;50.154;8.682;2023-06-22T11:45:26;5.72;;;4.57;;
65567;SDS011;52211;50.154;8.682;2023-06-22T11:47:56;6.22;;;5.63;;
65567;SDS011;52211;50.154;8.682;2023-06-22T11:50:27;6.85;;;5.15;;
65567;SDS011;52211;50.154;8.682;2023-06-22T11:52:56;4.70;;;4.15;;
65567;SDS011;52211;50.154;8.682;2023-06-22T11:55:26;5.53;;;5.13;;
65567;SDS011;52211;50.154;8.682;2023-06-22T11:57:55;5.60;;;5.10;;
65567;SDS011;52211;50.154;8.682;2023-06-22T12:00:26;5.13;;;4.63;;
65567;SDS011;52211;50.154;8.682;2023-06-22T12:03:13;5.85;;;5.25;;
65567;SDS011;52211;50.154;8.682;2023-06-22T12:05:43;5.63;;;4.57;;
65567;SDS011;52211;50.154;8.682;2023-06-22T12:08:15;5.50;;;5.03;;
65567;SDS011;52211;50.154;8.682;2023-06-22T12:10:42;6.18;;;5.57;;
65567;SDS011;52211;50.154;8.682;2023-06-22T12:13:14;5.18;;;4.68;;
65567;SDS011;52211;50.154;8.682;2023-06-22T12:15:46;4.82;;;4.43;;
65567;SDS011;52211;50.154;8.682;2023-06-22T12:18:13;5.88;;;4.70;;
65567;SDS011;52211;50.154;8.682;2023-06-22T12:20:43;6.00;;;5.10;;
65567;SDS011;52211;50.154;8.682;2023-06-22T12:23:14;4.95;;;4.60;;
65567;SDS011;52211;50.154;8.682;2023-06-22T12:25:41;7.03;;;6.32;;
65567;SDS011;52211;50.154;8.682;2023-06-22T12:28:10;6.65;;;5.70;;
65567;SDS011;52211;50.154;8.682;2023-06-22T12:30:37;5.82;;;5.10;;
65567;SDS011;52211;50.154;8.682;2023-06-22T12:33:06;5.78;;;5.25;;
65567;SDS011;52211;50.154;8.682;2023-06-22T12:35:34;5.88;;;5.38;;
65567;SDS011;52211;50.154;8.682;2023-06-22T12:38:01;6.53;;;5.22;;
65567;SDS011;52211;50.154;8.682;2023-06-22T12:40:34;4.60;;;4.18;;
65567;SDS011;52211;50.154;8.682;2023-06-22T12:43:01;6.20;;;4.93;;
65567;SDS011;52211;50.154;8.682;2023-06-22T12:45:32;5.50;;;5.00;;
65567;SDS011;52211;50.154;8.682;2023-06-22T12:48:03;5.75;;;5.28;;
65567;SDS011;52211;50.154;8.682;2023-06-22T12:50:30;5.22;;;4.82;;
65567;SDS011;52211;50.154;8.682;2023-06-22T12:53:00;5.80;;;5.20;;
65567;SDS011;52211;50.154;8.682;2023-06-22T12:55:30;5.97;;;5.38;;
65567;SDS011;52211;50.154;8.682;2023-06-22T12:58:02;5.30;;;4.93;;
65567;SDS011;52211;50.154;8.682;2023-06-22T13:00:29;5.97;;;4.93;;
65567;SDS011;52211;50.154;8.682;2023-06-22T13:02:56;5.60;;;5.10;;
65567;SDS011;52211;50.154;8.682;2023-06-22T13:05:23;6.65;;;5.20;;
65567;SDS011;52211;50.154;8.682;2023-06-22T13:07:57;5.28;;;4.28;;
65567;SDS011;52211;50.154;8.682;2023-06-22T13:10:23;6.82;;;4.40;;
65567;SDS011;52211;50.154;8.682;2023-06-22T13:12:53;5.78;;;5.25;;
65567;SDS011;52211;50.154;8.682;2023-06-22T13:15:27;5.03;;;4.50;;
65567;SDS011;52211;50.154;8.682;2023-06-22T13:17:57;5.25;;;4.75;;
65567;SDS011;52211;50.154;8.682;2023-06-22T13:20:24;4.70;;;4.30;;
65567;SDS011;52211;50.154;8.682;2023-06-22T13:22:54;5.40;;;4.90;;
65567;SDS011;52211;50.154;8.682;2023-06-22T13:25:25;6.38;;;5.10;;
65567;SDS011;52211;50.154;8.682;2023-06-22T13:27:58;7.15;;;5.50;;
65567;SDS011;52211;50.154;8.682;2023-06-22T13:30:32;4.65;;;4.25;;
65567;SDS011;52211;50.154;8.682;2023-06-22T13:33:02;6.93;;;5.03;;
65567;SDS011;52211;50.154;8.682;2023-06-22T13:35:34;5.50;;;4.75;;
65567;SDS011;52211;50.154;8.682;2023-06-22T13:38:01;7.05;;;5.28;;
65567;SDS011;52211;50.154;8.682;2023-06-22T13:40:30;5.50;;;5.00;;
65567;SDS011;52211;50.154;8.682;2023-06-22T13:42:57;8.05;;;5.43;;
65567;SDS011;52211;50.154;8.682;2023-06-22T13:45:26;5.70;;;5.20;;
65567;SDS011;52211;50.154;8.682;2023-06-22T13:47:56;4.80;;;4.40;;
65567;SDS011;52211;50.154;8.682;2023-06-22T13:50:26;5.00;;;4.60;;
65567;SDS011;52211;50.154;8.682;2023-06-22T13:52:55;5.22;;;4.72;;
65567;SDS011;52211;50.154;8.682;2023-06-22T13:55:25;4.97;;;4.45;;
65567;SDS011;52211;50.154;8.682;2023-06-22T13:57:52;5.78;;;5.25;;
65567;SDS011;52211;50.154;8.682;2023-06-22T14:00:22;6.60;;;4.78;;
65567;SDS011;52211;50.154;8.682;2023-06-22T14:02:55;5.70;;;5.10;;
65567;SDS011;52211;50.154;8.682;2023-06-22T14:05:26;6.47;;;4.78;;
65567;SDS011;52211;50.154;8.682;2023-06-22T14:07:56;5.90;;;4.80;;
65567;SDS011;52211;50.154;8.682;2023-06-22T14:10:27;5.10;;;4.70;;
65567;SDS011;52211;50.154;8.682;2023-06-22T14:12:54;6.57;;;6.00;;
65567;SDS011;52211;50.154;8.682;2023-06-22T14:15:26;6.20;;;4.93;;
65567;SDS011;52211;50.154;8.682;2023-06-22T14:17:58;5.88;;;5.05;;
65567;SDS011;52211;50.154;8.682;2023-06-22T14:20:32;5.03;;;4.45;;
65567;SDS011;52211;50.154;8.682;2023-06-22T14:23:04;6.13;;;5.00;;
65567;SDS011;52211;50.154;8.682;2023-06-22T14:25:38;6.82;;;4.68;;
65567;SDS011;52211;50.154;8.682;2023-06-22T14:28:06;5.20;;;4.80;;
65567;SDS011;52211;50.154;8.682;2023-06-22T14:30:38;5.38;;;4.88;;
65567;SDS011;52211;50.154;8.682;2023-06-22T14:33:04;5.15;;;4.75;;
65567;SDS011;52211;50.154;8.682;2023-06-22T14:35:36;5.43;;;4.60;;
65567;SDS011;52211;50.154;8.682;2023-06-22T14:38:05;6.90;;;5.22;;
65567;SDS011;52211;50.154;8.682;2023-06-22T14:40:32;5.82;;;4.38;;
65567;SDS011;52211;50.154;8.682;2023-06-22T14:43:22;4.70;;;4.22;;
65567;SDS011;52211;50.154;8.682;2023-06-22T14:45:52;5.07;;;4.57;;
65567;SDS011;52211;50.154;8.682;2023-06-22T14:48:19;4.82;;;4.35;;
65567;SDS011;52211;50.154;8.682;2023-06-22T14:50:51;4.20;;;3.75;;
65567;SDS011;52211;50.154;8.682;2023-06-22T14:53:22;4.20;;;3.80;;
65567;SDS011;52211;50.154;8.682;2023-06-22T14:55:49;7.10;;;4.00;;
65567;SDS011;52211;50.154;8.682;2023-06-22T14:58:19;4.93;;;3.47;;
65567;SDS011;52211;50.154;8.682;2023-06-22T15:00:52;4.72;;;3.63;;
65567;SDS011;52211;50.154;8.682;2023-06-22T15:03:21;8.90;;;3.67;;
65567;SDS011;52211;50.154;8.682;2023-06-22T15:05:56;5.00;;;3.65;;
65567;SDS011;52211;50.154;8.682;2023-06-22T15:08:25;5.43;;;3.55;;
65567;SDS011;52211;50.154;8.682;2023-06-22T15:10:52;4.55;;;3.85;;
65567;SDS011;52211;50.154;8.682;2023-06-22T15:13:24;3.55;;;3.28;;
65567;SDS011;52211;50.154;8.682;2023-06-22T15:15:54;6.38;;;4.13;;